Data for 12/25/2005

Time Sea-Level Adjusted Pressure Absolute Pressure Temperature Relative Humidity Dew Point   
(mb) (inHg) (mb) (inHg) (C) (F) (%) (C) (F)
00:05 1018 30.06 847 25.01 4.5 40.1 59 -2.8 27
00:10 1018 30.06 847 25.01 4.3 39.7 59 -3.1 26.4
00:15 1018 30.06 847 25.01 4.8 40.6 55 -3.5 25.7
00:20 1018 30.06 847 25.01 5.2 41.3 54 -3.5 25.8
00:25 1018 30.06 847 25.01 5.2 41.4 53 -3.5 25.7
00:30 1018 30.06 847 25.01 5.1 41.1 54 -3.5 25.7
00:35 1018 30.06 847 25.01 5 41 54 -3.4 25.9
00:40 1018 30.06 847 25.01 5.1 41.3 53 -3.6 25.5
00:45 1018 30.06 847 25.01 5.2 41.3 54 -3.3 26
00:50 1017 30.03 847 25.01 4.8 40.6 56 -3.2 26.3
00:55 1017 30.03 847 25.01 4.5 40.1 57 -3.3 26.1
01:00 1017 30.03 847 25.01 4.7 40.5 57 -3 26.6
01:05 1017 30.03 847 25.01 4.6 40.3 58 -3 26.6
01:10 1017 30.03 846 24.98 4.3 39.7 59 -3.1 26.5
01:15 1017 30.03 846 24.98 4.4 40 57 -3.2 26.2
01:20 1017 30.03 846 24.98 4.6 40.3 58 -2.8 27
01:25 1017 30.03 846 24.98 4.6 40.2 56 -3.4 25.9
01:30 1017 30.03 846 24.98 4.8 40.7 55 -3.4 25.9
01:35 1017 30.03 846 24.98 5 41 55 -3.3 26
01:40 1017 30.03 846 24.98 4.9 40.8 55 -3.3 26
01:45 1017 30.03 846 24.98 4.6 40.3 56 -3.3 26
01:50 1017 30.03 846 24.98 4.5 40.1 57 -3.4 26
01:55 1017 30.03 846 24.98 4.2 39.6 58 -3.2 26.2
02:00 1017 30.03 846 24.98 3.9 39 59 -3.3 26
02:05 1017 30.03 846 24.98 3.7 38.6 59 -3.6 25.6
02:10 1017 30.03 846 24.98 3.7 38.6 58 -3.8 25.1
02:15 1017 30.03 846 24.98 4.2 39.5 55 -4 24.8
02:20 1017 30.03 846 24.98 4.7 40.5 55 -3.6 25.6
02:25 1017 30.03 846 24.98 4.8 40.7 54 -3.7 25.4
02:30 1017 30.03 846 24.98 4.2 39.6 56 -3.7 25.4
02:35 1017 30.03 846 24.98 4.5 40.1 54 -4.1 24.6
02:40 1016 30 846 24.98 5 41 53 -3.8 25.2
02:45 1016 30 846 24.98 4.4 40 55 -3.8 25.2
02:50 1016 30 845 24.95 4 39.2 57 -3.7 25.3
02:55 1016 30 845 24.95 3.7 38.7 57 -3.9 25
03:00 1016 30 845 24.95 3.8 38.9 57 -4 24.8
03:05 1016 30 845 24.95 4.2 39.5 55 -4 24.8
03:10 1016 30 845 24.95 4.5 40.2 53 -4.2 24.5
03:15 1016 30 845 24.95 4.7 40.5 54 -3.8 25.1
03:20 1016 30 845 24.95 4.3 39.8 56 -3.8 25.2
03:25 1016 30 845 24.95 3.8 38.9 57 -3.9 25.1
03:30 1016 30 845 24.95 3.7 38.6 56 -4.2 24.4
03:35 1016 30 845 24.95 4.2 39.5 56 -3.9 24.9
03:40 1016 30 845 24.95 4.4 39.9 53 -4.2 24.4
03:45 1016 30 845 24.95 4.5 40 55 -3.8 25.1
03:50 1016 30 845 24.95 4.3 39.7 55 -4 24.8
03:55 1015 29.97 845 24.95 4.1 39.4 55 -4.1 24.6
04:00 1015 29.97 844 24.92 3.8 38.8 58 -3.8 25.2
04:05 1015 29.97 844 24.92 3 37.4 59 -4.3 24.2
04:10 1015 29.97 844 24.92 3.3 38 57 -4.4 24
04:15 1015 29.97 844 24.92 3.6 38.5 56 -4.3 24.2
04:20 1015 29.97 844 24.92 4.5 40.1 52 -4.5 23.9
04:25 1015 29.97 844 24.92 4.4 39.8 52 -4.6 23.8
04:30 1015 29.97 844 24.92 4.6 40.3 52 -4.4 24.1
04:35 1015 29.97 844 24.92 4.4 39.9 55 -3.8 25.2
04:40 1015 29.97 844 24.92 3.7 38.6 57 -4 24.8
04:45 1015 29.97 844 24.92 2.9 37.1 58 -4.6 23.7
04:50 1015 29.97 844 24.92 3.5 38.3 56 -4.6 23.7
04:55 1014 29.94 844 24.92 3.4 38 55 -4.9 23.3
05:00 1014 29.94 844 24.92 4.3 39.8 51 -4.9 23.3
05:05 1014 29.94 844 24.92 4.5 40.2 51 -4.6 23.7
05:10 1014 29.94 843 24.89 4.9 40.7 51 -4.5 23.9
05:15 1014 29.94 843 24.89 4.6 40.3 53 -4.1 24.7
05:20 1014 29.94 843 24.89 3.8 38.9 56 -4.3 24.3
05:25 1014 29.94 843 24.89 4 39.2 55 -4.2 24.5
05:30 1014 29.94 843 24.89 3.6 38.4 56 -4.3 24.2
05:35 1014 29.94 843 24.89 4 39.2 52 -4.9 23.2
05:40 1014 29.94 844 24.92 4.7 40.5 52 -4.3 24.3
05:45 1014 29.94 844 24.92 4.5 40 53 -4.2 24.5
05:50 1014 29.94 843 24.89 4 39.2 55 -4.2 24.5
05:55 1014 29.94 843 24.89 3.6 38.5 57 -4.1 24.7
06:00 1014 29.94 843 24.89 2.8 37 62 -3.8 25.2
06:05 1014 29.94 843 24.89 2.4 36.3 61 -4.3 24.2
06:10 1014 29.94 843 24.89 2.7 36.9 60 -4.2 24.4
06:15 1014 29.94 843 24.89 2.8 37.1 59 -4.4 24
06:20 1014 29.94 843 24.89 2.7 36.9 60 -4.4 24.2
06:25 1013 29.91 843 24.89 3.5 38.3 57 -4.4 24.2
06:30 1013 29.91 843 24.89 3 37.4 58 -4.4 24
06:35 1013 29.91 843 24.89 3.1 37.6 57 -4.6 23.7
06:40 1013 29.91 843 24.89 3.2 37.7 56 -4.8 23.4
06:45 1013 29.91 843 24.89 4 39.2 53 -4.7 23.6
06:50 1013 29.91 843 24.89 4.9 40.8 51 -4.4 24.1
06:55 1013 29.91 843 24.89 4.8 40.6 51 -4.4 24
07:00 1013 29.91 842 24.86 4.8 40.7 52 -4.3 24.3
07:05 1013 29.91 842 24.86 3.9 39.1 55 -4.2 24.4
07:10 1013 29.91 842 24.86 3.8 38.8 55 -4.6 23.8
07:15 1013 29.91 842 24.86 4 39.1 54 -4.5 23.9
07:20 1013 29.91 842 24.86 4.1 39.4 54 -4.4 24.1
07:25 1013 29.91 842 24.86 4.1 39.4 55 -4.3 24.3
07:30 1013 29.91 842 24.86 4 39.2 54 -4.4 24.1
07:35 1013 29.91 842 24.86 4.4 39.9 53 -4.3 24.3
07:40 1013 29.91 842 24.86 4.4 39.9 55 -3.8 25.1
07:45 1013 29.91 842 24.86 3.8 38.9 56 -4.1 24.6
07:50 1013 29.91 842 24.86 4.1 39.4 55 -4.1 24.6
07:55 1013 29.91 843 24.89 3.9 39.1 56 -4.1 24.6
08:00 1013 29.91 843 24.89 4 39.3 55 -4.3 24.3
08:05 1014 29.94 843 24.89 4 39.2 55 -4.2 24.5
08:10 1014 29.94 843 24.89 3.7 38.6 59 -3.6 25.5
08:15 1013 29.91 843 24.89 2.8 37 62 -3.7 25.4
08:20 1013 29.91 843 24.89 2.3 36.1 63 -4.1 24.6
08:25 1014 29.94 843 24.89 1.9 35.5 66 -3.8 25.2
08:30 1014 29.94 843 24.89 1.7 35 66 -4.1 24.6
08:35 1014 29.94 843 24.89 1.9 35.4 64 -4.1 24.5
08:40 1013 29.91 843 24.89 1.9 35.4 65 -4.1 24.6
08:45 1013 29.91 843 24.89 2.1 35.8 64 -4 24.8
08:50 1013 29.91 843 24.89 1.6 35 64 -4.5 23.9
08:55 1013 29.91 843 24.89 2.2 36 60 -4.7 23.5
09:00 1013 29.91 843 24.89 3.2 37.7 59 -4.1 24.6
09:05 1013 29.91 842 24.86 2.2 36 63 -4.1 24.6
09:10 1013 29.91 842 24.86 2.5 36.5 62 -4.1 24.6
09:15 1013 29.91 842 24.86 2.4 36.3 63 -4 24.8
09:20 1013 29.91 842 24.86 2.8 37.1 58 -4.5 23.9
09:25 1013 29.91 842 24.86 3 37.4 61 -3.7 25.3
09:30 1013 29.91 842 24.86 2.9 37.3 60 -4.2 24.5
09:35 1013 29.91 842 24.86 3.6 38.5 56 -4.2 24.4
09:40 1013 29.91 842 24.86 3.8 38.8 56 -4.1 24.7
09:45 1013 29.91 842 24.86 4 39.2 56 -4 24.8
09:50 1013 29.91 842 24.86 4.5 40.1 53 -4.2 24.5
09:55 1013 29.91 842 24.86 5.1 41.1 52 -3.9 24.9
10:00 1013 29.91 842 24.86 5.1 41.1 54 -3.4 25.8
10:05 1013 29.91 842 24.86 4.6 40.2 56 -3.5 25.8
10:10 1013 29.91 842 24.86 4.5 40.1 57 -3.3 26.1
10:15 1013 29.91 842 24.86 4.4 39.9 58 -3.1 26.4
10:20 1013 29.91 842 24.86 4.3 39.8 55 -3.8 25.2
10:25 1013 29.91 842 24.86 4.4 39.9 55 -3.8 25.2
10:30 1013 29.91 842 24.86 4.5 40.1 55 -3.7 25.3
10:35 1013 29.91 842 24.86 4.7 40.5 55 -3.5 25.8
10:40 1013 29.91 842 24.86 4.9 40.7 55 -3.3 26
10:45 1012 29.88 842 24.86 4.8 40.7 54 -3.8 25.2
10:50 1012 29.88 842 24.86 5 41 53 -3.8 25.2
10:55 1012 29.88 841 24.83 5.2 41.4 52 -3.8 25.1
11:00 1012 29.88 841 24.83 5.4 41.6 51 -4 24.8
11:05 1012 29.88 841 24.83 5.3 41.6 51 -3.9 25
11:10 1012 29.88 841 24.83 5.5 42 50 -3.9 24.9
11:15 1012 29.88 841 24.83 6.2 43.2 48 -3.9 25
11:20 1012 29.88 841 24.83 6.7 44.1 47 -3.8 25.2
11:25 1012 29.88 841 24.83 7.8 46 45 -3.3 26.1
11:30 1012 29.88 841 24.83 8.1 46.6 45 -3.2 26.2
11:35 1012 29.88 841 24.83 8.2 46.8 44 -3.3 26
11:40 1011 29.85 841 24.83 8.7 47.7 42 -3.5 25.8
11:45 1011 29.85 841 24.83 8.7 47.6 41 -3.7 25.3
11:50 1011 29.85 840 24.81 8.5 47.4 42 -3.6 25.5
11:55 1011 29.85 840 24.81 9 48.2 40 -3.9 24.9
12:00 1011 29.85 840 24.81 9.6 49.3 39 -3.7 25.3
12:05 1011 29.85 840 24.81 9.4 48.9 40 -3.5 25.8
12:10 1011 29.85 840 24.81 8.8 47.8 41 -3.6 25.5
12:15 1011 29.85 840 24.81 8.7 47.7 41 -4 24.9
12:20 1011 29.85 840 24.81 9.7 49.4 37 -4.2 24.5
12:25 1010 29.83 840 24.81 9.8 49.6 39 -3.6 25.5
12:30 1010 29.83 839 24.78 9.7 49.5 38 -3.9 24.9
12:35 1010 29.83 839 24.78 9.4 48.9 38 -4.1 24.6
12:40 1010 29.83 839 24.78 8.9 48 39 -4.1 24.5
12:45 1010 29.83 839 24.78 8.7 47.6 40 -4.2 24.5
12:50 1010 29.83 839 24.78 9.9 49.7 35 -4.7 23.5
12:55 1010 29.83 839 24.78 10.7 51.2 33 -4.9 23.2
13:00 1010 29.83 839 24.78 11.3 52.4 32 -4.9 23.2
13:05 1010 29.83 839 24.78 11.8 53.2 31 -4.7 23.5
13:10 1010 29.83 839 24.78 11.3 52.4 34 -3.8 25.2
13:15 1010 29.83 839 24.78 10.6 51 35 -4.3 24.3
13:20 1010 29.83 839 24.78 10.9 51.6 34 -4.2 24.5
13:25 1009 29.8 839 24.78 10.6 51.1 36 -4 24.8
13:30 1009 29.8 839 24.78 10 50 37 -3.8 25.1
13:35 1009 29.8 839 24.78 10 49.9 36 -4.5 24
13:40 1009 29.8 838 24.75 10.1 50.1 35 -4.8 23.4
13:45 1009 29.8 838 24.75 9.9 49.8 36 -4.6 23.7
13:50 1009 29.8 838 24.75 10.1 50.2 34 -4.9 23.2
13:55 1009 29.8 838 24.75 10.2 50.4 33 -5.1 22.8
14:00 1009 29.8 838 24.75 9.9 49.8 36 -4.4 24
14:05 1009 29.8 838 24.75 9.8 49.6 36 -4.7 23.5
14:10 1009 29.8 838 24.75 9.3 48.8 36 -4.8 23.3
14:15 1009 29.8 838 24.75 9.1 48.3 35 -5.7 21.8
14:20 1009 29.8 838 24.75 9.1 48.3 35 -5.7 21.8
14:25 1009 29.8 838 24.75 9.4 48.8 33 -6 21.2
14:30 1009 29.8 838 24.75 10.2 50.3 34 -5.1 22.7
14:35 1009 29.8 838 24.75 10.4 50.7 34 -4.8 23.3
14:40 1009 29.8 838 24.75 10 50 36 -4.3 24.2
14:45 1009 29.8 838 24.75 9.5 49.1 38 -4.2 24.4
14:50 1009 29.8 838 24.75 9.6 49.2 34 -5.4 22.2
14:55 1009 29.8 838 24.75 9.8 49.7 35 -4.8 23.3
15:00 1009 29.8 838 24.75 9.4 48.9 41 -3.2 26.2
15:05 1009 29.8 838 24.75 8.9 47.9 40 -4.1 24.5
15:10 1009 29.8 838 24.75 8.8 47.9 43 -3.1 26.5
15:15 1009 29.8 838 24.75 8.7 47.7 41 -3.7 25.3
15:20 1009 29.8 838 24.75 8.7 47.6 40 -4.1 24.6
15:25 1009 29.8 838 24.75 8.8 47.8 38 -4.8 23.3
15:30 1009 29.8 838 24.75 9 48.3 39 -4.2 24.4
15:35 1009 29.8 838 24.75 9.1 48.3 40 -3.6 25.4
15:40 1009 29.8 838 24.75 9.3 48.7 37 -4.6 23.7
15:45 1009 29.8 838 24.75 9.3 48.8 39 -3.9 25
15:50 1009 29.8 838 24.75 9.3 48.7 38 -4.2 24.5
15:55 1009 29.8 838 24.75 9.2 48.6 39 -4.1 24.6
16:00 1009 29.8 838 24.75 9.1 48.5 36 -5.2 22.6
16:05 1009 29.8 839 24.78 9.1 48.4 37 -4.8 23.3
16:10 1009 29.8 839 24.78 9.2 48.6 35 -5.3 22.5
16:15 1009 29.8 838 24.75 9.2 48.6 35 -5.6 21.9
16:20 1009 29.8 838 24.75 9.7 49.4 35 -5.1 22.8
16:25 1009 29.8 838 24.75 9.1 48.4 38 -4.4 24
16:30 1009 29.8 838 24.75 8.5 47.2 40 -4.3 24.2
16:35 1009 29.8 838 24.75 8.4 47.1 38 -5 23.1
16:40 1009 29.8 838 24.75 9.1 48.3 38 -4.4 24
16:45 1009 29.8 839 24.78 9.1 48.4 39 -4 24.8
16:50 1009 29.8 839 24.78 9.5 49.2 33 -5.8 21.6
16:55 1009 29.8 839 24.78 9.9 49.8 35 -5 23.1
17:00 1009 29.8 839 24.78 9.7 49.5 35 -5.2 22.7
17:05 1009 29.8 839 24.78 9.7 49.5 36 -4.6 23.8
17:10 1009 29.8 839 24.78 9.6 49.2 36 -4.7 23.6
17:15 1010 29.83 839 24.78 9.5 49 37 -4.5 23.9
17:20 1009 29.8 839 24.78 9.5 49.2 34 -5.6 22
17:25 1009 29.8 838 24.75 9.8 49.7 38 -3.7 25.3
17:30 1009 29.8 838 24.75 9.2 48.6 37 -4.6 23.7
17:35 1009 29.8 838 24.75 8.9 48 39 -4.2 24.4
17:40 1009 29.8 838 24.75 8.2 46.8 44 -3.3 26.1
17:45 1009 29.8 838 24.75 7.6 45.7 44 -3.9 24.9
17:50 1009 29.8 838 24.75 7.9 46.3 41 -4.4 24.1
17:55 1009 29.8 838 24.75 8.8 47.8 38 -4.6 23.7
18:00 1009 29.8 838 24.75 8.8 47.8 41 -3.8 25.1
18:05 1009 29.8 838 24.75 8 46.3 44 -3.4 25.9
18:10 1009 29.8 838 24.75 7.5 45.4 47 -3.2 26.3
18:15 1009 29.8 838 24.75 7.3 45.1 48 -3.1 26.4
18:20 1009 29.8 838 24.75 7.3 45.1 47 -3.4 25.9
18:25 1009 29.8 838 24.75 7.1 44.8 48 -3.2 26.2
18:30 1009 29.8 838 24.75 7.4 45.4 42 -4.7 23.6
18:35 1009 29.8 838 24.75 8.7 47.7 36 -5.4 22.2
18:40 1009 29.8 838 24.75 9.7 49.4 35 -5.1 22.8
18:45 1009 29.8 838 24.75 9.6 49.3 36 -4.8 23.3
18:50 1009 29.8 838 24.75 9.6 49.3 36 -4.6 23.8
18:55 1009 29.8 839 24.78 9.3 48.8 39 -4 24.8
19:00 1009 29.8 839 24.78 9.2 48.5 37 -4.6 23.7
19:05 1009 29.8 839 24.78 9.4 48.9 37 -4.5 23.9
19:10 1010 29.83 839 24.78 9.5 49 36 -4.8 23.4
19:15 1010 29.83 839 24.78 9.8 49.7 36 -4.5 23.9
19:20 1010 29.83 839 24.78 9.3 48.7 39 -4.1 24.7
19:25 1010 29.83 839 24.78 8.7 47.7 42 -3.6 25.6
19:30 1010 29.83 839 24.78 8.4 47.2 41 -4.1 24.6
19:35 1009 29.8 839 24.78 8.7 47.7 41 -3.9 24.9
19:40 1009 29.8 839 24.78 8.7 47.7 40 -4.2 24.5
19:45 1010 29.83 839 24.78 8.9 48 41 -3.7 25.3
19:50 1010 29.83 839 24.78 8.7 47.7 42 -3.5 25.6
19:55 1010 29.83 839 24.78 8.6 47.6 42 -3.4 25.9
20:00 1010 29.83 839 24.78 8.5 47.2 45 -2.8 26.9
20:05 1010 29.83 839 24.78 7.9 46.3 48 -2.4 27.6
20:10 1010 29.83 839 24.78 7.8 46 46 -3 26.7
20:15 1010 29.83 839 24.78 8.4 47.1 46 -2.5 27.4
20:20 1010 29.83 839 24.78 8.1 46.5 46 -2.7 27.2
20:25 1010 29.83 839 24.78 8.1 46.6 48 -2.3 27.9
20:30 1010 29.83 839 24.78 7.9 46.3 47 -2.5 27.4
20:35 1010 29.83 839 24.78 8.1 46.5 47 -2.5 27.5
20:40 1010 29.83 839 24.78 9.2 48.5 43 -2.8 26.9
20:45 1010 29.83 839 24.78 9.1 48.4 45 -2.3 27.8
20:50 1010 29.83 839 24.78 8.8 47.9 47 -1.9 28.6
20:55 1010 29.83 839 24.78 9.1 48.3 46 -2 28.5
21:00 1009 29.8 839 24.78 8.8 47.9 46 -2.1 28.2
21:05 1009 29.8 839 24.78 8.7 47.6 49 -1.5 29.3
21:10 1009 29.8 838 24.75 8.2 46.7 51 -1.4 29.4
21:15 1009 29.8 838 24.75 7.8 46 50 -1.8 28.7
21:20 1009 29.8 838 24.75 8.4 47 49 -1.8 28.8
21:25 1009 29.8 838 24.75 8.5 47.3 49 -1.7 29
21:30 1009 29.8 838 24.75 8.5 47.2 48 -1.7 28.9
21:35 1009 29.8 838 24.75 8.5 47.2 49 -1.7 29
21:40 1009 29.8 838 24.75 8.4 47 50 -1.5 29.2
21:45 1009 29.8 838 24.75 8.1 46.6 50 -1.7 29
21:50 1009 29.8 838 24.75 8.2 46.7 49 -1.8 28.8
21:55 1009 29.8 838 24.75 8.3 46.9 49 -1.7 28.9
22:00 1009 29.8 838 24.75 8.3 46.9 49 -1.9 28.7
22:05 1009 29.8 838 24.75 8.3 47 49 -1.8 28.7
22:10 1009 29.8 838 24.75 8.3 46.9 48 -1.9 28.5
22:15 1009 29.8 838 24.75 8.2 46.7 50 -1.6 29.1
22:20 1009 29.8 838 24.75 7.8 46 52 -1.4 29.4
22:25 1009 29.8 838 24.75 7.2 44.9 54 -1.4 29.6
22:30 1009 29.8 838 24.75 6.5 43.6 57 -1.5 29.3
22:35 1009 29.8 838 24.75 6.2 43.2 57 -1.7 29
22:40 1009 29.8 838 24.75 6.2 43.2 56 -1.9 28.6
22:45 1009 29.8 838 24.75 6.6 43.8 53 -2.3 27.9
22:50 1009 29.8 838 24.75 7 44.6 52 -2.2 28.1
22:55 1009 29.8 839 24.78 7.1 44.7 52 -2.1 28.3
23:00 1009 29.8 838 24.75 7.1 44.8 50 -2.5 27.5
23:05 1009 29.8 838 24.75 7.6 45.6 49 -2.5 27.5
23:10 1009 29.8 838 24.75 7.8 46.1 48 -2.5 27.5
23:15 1009 29.8 838 24.75 8.1 46.5 45 -3.1 26.4
23:20 1009 29.8 838 24.75 8.3 46.9 46 -2.7 27.2
23:25 1009 29.8 838 24.75 7.9 46.2 48 -2.4 27.7
23:30 1009 29.8 838 24.75 7.4 45.4 50 -2.4 27.8
23:35 1009 29.8 838 24.75 7.2 45 50 -2.6 27.4
23:40 1009 29.8 838 24.75 7.5 45.5 47 -3.1 26.4
23:45 1009 29.8 839 24.78 7.7 45.8 47 -2.8 26.9
23:50 1009 29.8 839 24.78 7.1 44.8 49 -2.8 26.9
23:55 1009 29.8 839 24.78 7.4 45.4 46 -3.4 25.9
24:00 1009 29.8 838 24.75 7.9 46.2 45 -3.2 26.2